sensor_id;sensor_type;location;lat;lon;timestamp;pressure;altitude;pressure_sealevel;temperature;humidity
42289;BME280;30230;47.520;19.016;2023-09-19T00:01:20;98573.16;;;22.07;74.17
42289;BME280;30230;47.520;19.016;2023-09-19T00:03:21;98574.13;;;21.97;74.60
42289;BME280;30230;47.520;19.016;2023-09-19T00:05:23;98569.44;;;21.98;74.58
42289;BME280;30230;47.520;19.016;2023-09-19T00:07:24;98572.25;;;21.93;75.02
42289;BME280;30230;47.520;19.016;2023-09-19T00:09:24;98577.22;;;21.91;75.06
42289;BME280;30230;47.520;19.016;2023-09-19T00:11:27;98576.34;;;21.95;75.02
42289;BME280;30230;47.520;19.016;2023-09-19T00:13:29;98564.75;;;21.98;74.86
42289;BME280;30230;47.520;19.016;2023-09-19T00:15:31;98569.72;;;21.96;74.77
42289;BME280;30230;47.520;19.016;2023-09-19T00:17:35;98565.41;;;21.90;75.38
42289;BME280;30230;47.520;19.016;2023-09-19T00:19:37;98568.91;;;21.96;75.22
42289;BME280;30230;47.520;19.016;2023-09-19T00:21:37;98557.69;;;21.92;75.18
42289;BME280;30230;47.520;19.016;2023-09-19T00:23:38;98562.97;;;21.89;75.50
42289;BME280;30230;47.520;19.016;2023-09-19T00:25:40;98562.72;;;21.85;75.89
42289;BME280;30230;47.520;19.016;2023-09-19T00:27:41;98558.91;;;21.81;75.93
42289;BME280;30230;47.520;19.016;2023-09-19T00:29:43;98558.03;;;21.85;75.99
42289;BME280;30230;47.520;19.016;2023-09-19T00:31:43;98566.59;;;21.84;76.07
42289;BME280;30230;47.520;19.016;2023-09-19T00:33:44;98562.22;;;21.83;76.03
42289;BME280;30230;47.520;19.016;2023-09-19T00:37:47;98557.91;;;21.77;76.55
42289;BME280;30230;47.520;19.016;2023-09-19T00:39:48;98560.16;;;21.70;77.03
42289;BME280;30230;47.520;19.016;2023-09-19T00:41:48;98563.28;;;21.63;77.44
42289;BME280;30230;47.520;19.016;2023-09-19T00:43:48;98561.94;;;21.61;77.66
42289;BME280;30230;47.520;19.016;2023-09-19T00:45:51;98559.72;;;21.63;77.71
42289;BME280;30230;47.520;19.016;2023-09-19T00:47:52;98550.97;;;21.61;78.11
42289;BME280;30230;47.520;19.016;2023-09-19T00:49:52;98560.59;;;21.58;78.37
42289;BME280;30230;47.520;19.016;2023-09-19T00:51:53;98555.91;;;21.58;78.34
42289;BME280;30230;47.520;19.016;2023-09-19T00:53:54;98557.09;;;21.52;78.85
42289;BME280;30230;47.520;19.016;2023-09-19T00:55:55;98552.41;;;21.53;78.92
42289;BME280;30230;47.520;19.016;2023-09-19T00:57:56;98548.28;;;21.55;79.15
42289;BME280;30230;47.520;19.016;2023-09-19T00:59:56;98555.66;;;21.55;79.32
42289;BME280;30230;47.520;19.016;2023-09-19T01:01:57;98554.22;;;21.63;79.26
42289;BME280;30230;47.520;19.016;2023-09-19T01:04:00;98547.72;;;21.53;79.59
42289;BME280;30230;47.520;19.016;2023-09-19T01:06:00;98549.91;;;21.56;79.57
42289;BME280;30230;47.520;19.016;2023-09-19T01:08:02;98559.25;;;21.55;80.08
42289;BME280;30230;47.520;19.016;2023-09-19T01:10:02;98552.22;;;21.44;80.47
42289;BME280;30230;47.520;19.016;2023-09-19T01:12:05;98561.28;;;21.45;80.59
42289;BME280;30230;47.520;19.016;2023-09-19T01:18:29;98551.53;;;21.57;80.56
42289;BME280;30230;47.520;19.016;2023-09-19T01:28:58;98555.50;;;21.46;81.46
42289;BME280;30230;47.520;19.016;2023-09-19T01:31:01;98555.84;;;21.40;82.02
42289;BME280;30230;47.520;19.016;2023-09-19T01:33:04;98546.03;;;21.33;82.47
42289;BME280;30230;47.520;19.016;2023-09-19T01:35:06;98549.53;;;21.39;82.32
42289;BME280;30230;47.520;19.016;2023-09-19T01:37:12;98545.09;;;21.43;82.12
42289;BME280;30230;47.520;19.016;2023-09-19T01:39:12;98541.84;;;21.41;82.51
42289;BME280;30230;47.520;19.016;2023-09-19T01:41:13;98547.31;;;21.41;82.32
42289;BME280;30230;47.520;19.016;2023-09-19T01:47:31;98545.22;;;21.28;83.50
42289;BME280;30230;47.520;19.016;2023-09-19T01:49:44;98540.34;;;21.25;83.95
42289;BME280;30230;47.520;19.016;2023-09-19T01:52:02;98549.97;;;21.22;84.30
42289;BME280;30230;47.520;19.016;2023-09-19T01:54:10;98555.81;;;21.16;84.72
42289;BME280;30230;47.520;19.016;2023-09-19T01:56:16;98546.19;;;21.13;85.01
42289;BME280;30230;47.520;19.016;2023-09-19T01:58:26;98552.03;;;21.06;85.82
42289;BME280;30230;47.520;19.016;2023-09-19T02:00:27;98545.78;;;21.01;85.93
42289;BME280;30230;47.520;19.016;2023-09-19T02:02:29;98546.66;;;20.96;86.72
42289;BME280;30230;47.520;19.016;2023-09-19T02:04:31;98547.47;;;20.97;86.58
42289;BME280;30230;47.520;19.016;2023-09-19T02:06:32;98547.75;;;20.95;87.15
42289;BME280;30230;47.520;19.016;2023-09-19T02:08:34;98548.88;;;20.94;87.18
42289;BME280;30230;47.520;19.016;2023-09-19T02:10:34;98553.59;;;20.89;87.82
42289;BME280;30230;47.520;19.016;2023-09-19T02:12:34;98557.16;;;20.89;87.65
42289;BME280;30230;47.520;19.016;2023-09-19T02:14:35;98549.19;;;20.88;88.06
42289;BME280;30230;47.520;19.016;2023-09-19T02:16:38;98558.53;;;20.87;88.17
42289;BME280;30230;47.520;19.016;2023-09-19T02:18:39;98557.47;;;20.83;88.71
42289;BME280;30230;47.520;19.016;2023-09-19T02:20:39;98553.41;;;20.80;89.49
42289;BME280;30230;47.520;19.016;2023-09-19T02:22:40;98552.22;;;20.86;88.50
42289;BME280;30230;47.520;19.016;2023-09-19T02:24:40;98550.66;;;20.80;88.86
42289;BME280;30230;47.520;19.016;2023-09-19T02:26:41;98549.00;;;20.79;89.10
42289;BME280;30230;47.520;19.016;2023-09-19T02:28:41;98549.28;;;20.77;89.66
42289;BME280;30230;47.520;19.016;2023-09-19T02:30:41;98550.16;;;20.73;90.09
42289;BME280;30230;47.520;19.016;2023-09-19T02:32:42;98541.09;;;20.72;90.19
42289;BME280;30230;47.520;19.016;2023-09-19T02:34:42;98541.69;;;20.69;90.61
42289;BME280;30230;47.520;19.016;2023-09-19T02:36:43;98547.75;;;20.66;90.78
42289;BME280;30230;47.520;19.016;2023-09-19T02:38:44;98548.59;;;20.62;91.29
42289;BME280;30230;47.520;19.016;2023-09-19T02:40:45;98544.22;;;20.61;91.64
42289;BME280;30230;47.520;19.016;2023-09-19T02:42:48;98546.66;;;20.62;90.86
42289;BME280;30230;47.520;19.016;2023-09-19T02:44:49;98555.28;;;20.50;92.11
42289;BME280;30230;47.520;19.016;2023-09-19T02:46:50;98549.78;;;20.45;92.47
42289;BME280;30230;47.520;19.016;2023-09-19T02:48:50;98545.47;;;20.34;92.75
42289;BME280;30230;47.520;19.016;2023-09-19T02:50:50;98545.81;;;20.27;93.64
42289;BME280;30230;47.520;19.016;2023-09-19T02:52:51;98552.13;;;20.28;93.06
42289;BME280;30230;47.520;19.016;2023-09-19T02:54:51;98548.28;;;20.24;93.50
42289;BME280;30230;47.520;19.016;2023-09-19T02:56:52;98542.03;;;20.18;93.93
42289;BME280;30230;47.520;19.016;2023-09-19T02:58:53;98545.31;;;20.15;94.03
42289;BME280;30230;47.520;19.016;2023-09-19T03:00:55;98533.56;;;20.10;94.53
42289;BME280;30230;47.520;19.016;2023-09-19T03:02:55;98536.94;;;20.01;95.26
42289;BME280;30230;47.520;19.016;2023-09-19T03:04:56;98530.38;;;19.97;95.69
42289;BME280;30230;47.520;19.016;2023-09-19T03:06:56;98539.16;;;19.89;96.30
42289;BME280;30230;47.520;19.016;2023-09-19T03:09:00;98543.56;;;19.90;96.03
42289;BME280;30230;47.520;19.016;2023-09-19T03:11:00;98542.50;;;19.86;96.63
42289;BME280;30230;47.520;19.016;2023-09-19T03:13:01;98539.22;;;19.79;97.28
42289;BME280;30230;47.520;19.016;2023-09-19T03:15:02;98537.59;;;19.78;97.79
42289;BME280;30230;47.520;19.016;2023-09-19T03:17:02;98546.13;;;19.71;98.20
42289;BME280;30230;47.520;19.016;2023-09-19T03:19:04;98541.72;;;19.75;97.54
42289;BME280;30230;47.520;19.016;2023-09-19T03:21:05;98536.50;;;19.74;97.74
42289;BME280;30230;47.520;19.016;2023-09-19T03:23:05;98538.16;;;19.75;98.16
42289;BME280;30230;47.520;19.016;2023-09-19T03:25:06;98533.75;;;19.74;98.45
42289;BME280;30230;47.520;19.016;2023-09-19T03:27:10;98540.34;;;19.73;98.79
42289;BME280;30230;47.520;19.016;2023-09-19T03:29:11;98543.94;;;19.68;99.02
42289;BME280;30230;47.520;19.016;2023-09-19T03:31:11;98537.63;;;19.68;99.64
42289;BME280;30230;47.520;19.016;2023-09-19T03:33:11;98540.66;;;19.66;99.39
42289;BME280;30230;47.520;19.016;2023-09-19T03:35:12;98540.38;;;19.68;98.99
42289;BME280;30230;47.520;19.016;2023-09-19T03:37:14;98550.25;;;19.64;99.17
42289;BME280;30230;47.520;19.016;2023-09-19T03:39:14;98551.91;;;19.65;99.07
42289;BME280;30230;47.520;19.016;2023-09-19T03:41:16;98537.38;;;19.69;98.68
42289;BME280;30230;47.520;19.016;2023-09-19T03:43:17;98536.50;;;19.74;98.68
42289;BME280;30230;47.520;19.016;2023-09-19T03:45:17;98541.97;;;19.74;99.04
42289;BME280;30230;47.520;19.016;2023-09-19T03:47:18;98540.34;;;19.73;99.11
42289;BME280;30230;47.520;19.016;2023-09-19T03:49:21;98540.94;;;19.70;99.68
42289;BME280;30230;47.520;19.016;2023-09-19T03:51:22;98545.00;;;19.72;99.28
42289;BME280;30230;47.520;19.016;2023-09-19T03:53:22;98540.63;;;19.71;99.47
42289;BME280;30230;47.520;19.016;2023-09-19T03:55:22;98541.16;;;19.73;99.63
42289;BME280;30230;47.520;19.016;2023-09-19T03:57:23;98545.81;;;19.73;100.00
42289;BME280;30230;47.520;19.016;2023-09-19T03:59:23;98549.13;;;19.75;100.00
42289;BME280;30230;47.520;19.016;2023-09-19T04:01:23;98553.78;;;19.74;100.00
42289;BME280;30230;47.520;19.016;2023-09-19T04:03:24;98555.44;;;19.75;100.00
42289;BME280;30230;47.520;19.016;2023-09-19T04:05:28;98575.94;;;19.78;100.00
42289;BME280;30230;47.520;19.016;2023-09-19T04:07:29;98567.19;;;19.81;100.00
42289;BME280;30230;47.520;19.016;2023-09-19T04:09:30;98565.78;;;19.84;100.00
42289;BME280;30230;47.520;19.016;2023-09-19T04:11:30;98569.31;;;19.89;100.00
42289;BME280;30230;47.520;19.016;2023-09-19T04:13:31;98556.09;;;20.07;97.53
42289;BME280;30230;47.520;19.016;2023-09-19T04:15:31;98558.03;;;20.01;97.41
42289;BME280;30230;47.520;19.016;2023-09-19T04:17:31;98553.94;;;19.98;97.20
42289;BME280;30230;47.520;19.016;2023-09-19T04:19:34;98561.00;;;20.10;96.37
42289;BME280;30230;47.520;19.016;2023-09-19T04:21:35;98561.78;;;20.15;95.26
42289;BME280;30230;47.520;19.016;2023-09-19T04:23:35;98560.41;;;20.18;94.70
42289;BME280;30230;47.520;19.016;2023-09-19T04:25:35;98557.34;;;20.24;93.55
42289;BME280;30230;47.520;19.016;2023-09-19T04:27:37;98560.09;;;20.24;93.32
42289;BME280;30230;47.520;19.016;2023-09-19T04:29:38;98562.56;;;20.21;92.52
42289;BME280;30230;47.520;19.016;2023-09-19T04:31:39;98558.69;;;20.32;92.06
42289;BME280;30230;47.520;19.016;2023-09-19T04:33:40;98562.50;;;20.31;91.18
42289;BME280;30230;47.520;19.016;2023-09-19T04:35:41;98565.03;;;20.22;91.64
42289;BME280;30230;47.520;19.016;2023-09-19T04:37:42;98571.91;;;20.20;91.45
42289;BME280;30230;47.520;19.016;2023-09-19T04:39:42;98579.84;;;20.21;91.43
42289;BME280;30230;47.520;19.016;2023-09-19T04:41:43;98579.56;;;20.23;91.48
42289;BME280;30230;47.520;19.016;2023-09-19T04:43:44;98571.31;;;20.28;91.31
42289;BME280;30230;47.520;19.016;2023-09-19T04:45:45;98583.91;;;20.29;90.41
42289;BME280;30230;47.520;19.016;2023-09-19T04:47:46;98587.50;;;20.24;90.78
42289;BME280;30230;47.520;19.016;2023-09-19T04:49:46;98582.25;;;20.33;89.51
42289;BME280;30230;47.520;19.016;2023-09-19T04:51:47;98591.53;;;20.42;89.04
42289;BME280;30230;47.520;19.016;2023-09-19T04:53:47;98581.47;;;20.27;89.37
42289;BME280;30230;47.520;19.016;2023-09-19T04:55:51;98593.84;;;20.20;89.62
42289;BME280;30230;47.520;19.016;2023-09-19T04:57:52;98591.38;;;20.18;89.62
42289;BME280;30230;47.520;19.016;2023-09-19T04:59:53;98587.84;;;20.13;90.21
42289;BME280;30230;47.520;19.016;2023-09-19T05:01:54;98588.69;;;20.08;90.95
42289;BME280;30230;47.520;19.016;2023-09-19T05:03:54;98589.56;;;19.98;91.71
42289;BME280;30230;47.520;19.016;2023-09-19T05:05:54;98597.75;;;20.03;91.61
42289;BME280;30230;47.520;19.016;2023-09-19T05:07:54;98595.03;;;20.03;91.73
42289;BME280;30230;47.520;19.016;2023-09-19T05:09:55;98601.88;;;20.06;91.65
42289;BME280;30230;47.520;19.016;2023-09-19T05:11:55;98605.47;;;20.01;92.13
42289;BME280;30230;47.520;19.016;2023-09-19T05:13:56;98614.84;;;19.85;93.17
42289;BME280;30230;47.520;19.016;2023-09-19T05:15:59;98617.34;;;19.76;94.29
42289;BME280;30230;47.520;19.016;2023-09-19T05:18:00;98625.59;;;19.61;95.29
42289;BME280;30230;47.520;19.016;2023-09-19T05:20:03;98629.69;;;19.64;95.43
42289;BME280;30230;47.520;19.016;2023-09-19T05:22:12;98626.94;;;19.53;96.10
42289;BME280;30230;47.520;19.016;2023-09-19T05:24:14;98632.19;;;19.60;97.43
42289;BME280;30230;47.520;19.016;2023-09-19T05:26:14;98629.66;;;19.74;96.24
42289;BME280;30230;47.520;19.016;2023-09-19T05:28:16;98637.34;;;19.72;94.53
42289;BME280;30230;47.520;19.016;2023-09-19T05:30:16;98630.28;;;19.61;95.18
42289;BME280;30230;47.520;19.016;2023-09-19T05:32:18;98641.22;;;19.50;95.66
42289;BME280;30230;47.520;19.016;2023-09-19T05:34:19;98647.50;;;19.56;95.34
42289;BME280;30230;47.520;19.016;2023-09-19T05:36:20;98642.88;;;19.46;95.04
42289;BME280;30230;47.520;19.016;2023-09-19T05:38:20;98641.78;;;19.37;96.42
42289;BME280;30230;47.520;19.016;2023-09-19T05:40:20;98632.50;;;19.33;96.22
42289;BME280;30230;47.520;19.016;2023-09-19T05:42:20;98630.59;;;19.23;96.92
42289;BME280;30230;47.520;19.016;2023-09-19T05:44:21;98634.16;;;19.24;96.98
42289;BME280;30230;47.520;19.016;2023-09-19T05:46:21;98626.47;;;19.31;96.55
42289;BME280;30230;47.520;19.016;2023-09-19T05:48:22;98631.41;;;19.29;96.84
42289;BME280;30230;47.520;19.016;2023-09-19T05:50:22;98626.47;;;19.26;96.72
42289;BME280;30230;47.520;19.016;2023-09-19T05:52:24;98631.94;;;19.26;97.15
42289;BME280;30230;47.520;19.016;2023-09-19T05:54:25;98635.78;;;19.20;96.81
42289;BME280;30230;47.520;19.016;2023-09-19T05:56:25;98642.88;;;19.31;96.46
42289;BME280;30230;47.520;19.016;2023-09-19T05:58:27;98645.91;;;19.19;96.44
42289;BME280;30230;47.520;19.016;2023-09-19T06:00:27;98634.41;;;19.17;97.11
42289;BME280;30230;47.520;19.016;2023-09-19T06:02:29;98639.34;;;19.15;96.69
42289;BME280;30230;47.520;19.016;2023-09-19T06:04:30;98648.38;;;19.16;95.89
42289;BME280;30230;47.520;19.016;2023-09-19T06:06:30;98635.78;;;19.05;97.43
42289;BME280;30230;47.520;19.016;2023-09-19T06:08:31;98631.97;;;19.00;99.51
42289;BME280;30230;47.520;19.016;2023-09-19T06:10:31;98635.25;;;18.92;100.00
42289;BME280;30230;47.520;19.016;2023-09-19T06:12:32;98635.50;;;18.76;100.00
42289;BME280;30230;47.520;19.016;2023-09-19T06:14:37;98634.69;;;18.70;100.00
42289;BME280;30230;47.520;19.016;2023-09-19T06:16:37;98642.88;;;18.70;100.00
42289;BME280;30230;47.520;19.016;2023-09-19T06:18:41;98649.41;;;18.54;100.00
42289;BME280;30230;47.520;19.016;2023-09-19T06:20:42;98640.63;;;18.41;100.00
42289;BME280;30230;47.520;19.016;2023-09-19T06:22:44;98637.63;;;18.43;100.00
42289;BME280;30230;47.520;19.016;2023-09-19T06:24:45;98639.53;;;18.37;100.00
42289;BME280;30230;47.520;19.016;2023-09-19T06:26:47;98642.75;;;18.29;100.00
42289;BME280;30230;47.520;19.016;2023-09-19T06:28:47;98649.88;;;18.25;100.00
42289;BME280;30230;47.520;19.016;2023-09-19T06:30:48;98661.03;;;18.13;100.00
42289;BME280;30230;47.520;19.016;2023-09-19T06:32:48;98668.97;;;18.10;100.00
42289;BME280;30230;47.520;19.016;2023-09-19T06:34:51;98664.34;;;18.15;100.00
42289;BME280;30230;47.520;19.016;2023-09-19T06:36:54;98661.81;;;18.09;100.00
42289;BME280;30230;47.520;19.016;2023-09-19T06:38:55;98666.22;;;18.10;100.00
42289;BME280;30230;47.520;19.016;2023-09-19T06:40:55;98668.38;;;18.08;100.00
42289;BME280;30230;47.520;19.016;2023-09-19T06:42:57;98678.19;;;18.04;100.00
42289;BME280;30230;47.520;19.016;2023-09-19T06:44:57;98669.44;;;17.96;100.00
42289;BME280;30230;47.520;19.016;2023-09-19T06:46:57;98682.28;;;17.96;100.00
42289;BME280;30230;47.520;19.016;2023-09-19T06:48:58;98677.06;;;17.89;100.00
42289;BME280;30230;47.520;19.016;2023-09-19T06:50:58;98681.22;;;18.02;100.00
42289;BME280;30230;47.520;19.016;2023-09-19T06:53:04;98681.75;;;17.99;100.00
42289;BME280;30230;47.520;19.016;2023-09-19T06:55:05;98685.28;;;17.94;100.00
42289;BME280;30230;47.520;19.016;2023-09-19T06:57:06;98681.47;;;17.95;100.00
42289;BME280;30230;47.520;19.016;2023-09-19T06:59:09;98680.91;;;17.88;100.00
42289;BME280;30230;47.520;19.016;2023-09-19T07:01:09;98676.25;;;17.89;100.00
42289;BME280;30230;47.520;19.016;2023-09-19T07:03:10;98676.81;;;17.96;100.00
42289;BME280;30230;47.520;19.016;2023-09-19T07:05:13;98679.81;;;17.94;100.00
42289;BME280;30230;47.520;19.016;2023-09-19T07:07:13;98682.28;;;17.96;100.00
42289;BME280;30230;47.520;19.016;2023-09-19T07:09:14;98686.91;;;17.90;100.00
42289;BME280;30230;47.520;19.016;2023-09-19T07:11:14;98698.09;;;17.89;100.00
42289;BME280;30230;47.520;19.016;2023-09-19T07:13:15;98688.25;;;17.88;100.00
42289;BME280;30230;47.520;19.016;2023-09-19T07:15:18;98701.84;;;17.78;100.00
42289;BME280;30230;47.520;19.016;2023-09-19T07:17:20;98694.22;;;17.80;100.00
42289;BME280;30230;47.520;19.016;2023-09-19T07:19:21;98696.13;;;17.79;100.00
42289;BME280;30230;47.520;19.016;2023-09-19T07:21:22;98702.16;;;17.86;100.00
42289;BME280;30230;47.520;19.016;2023-09-19T07:23:22;98708.72;;;17.85;100.00
42289;BME280;30230;47.520;19.016;2023-09-19T07:25:23;98706.50;;;17.82;100.00
42289;BME280;30230;47.520;19.016;2023-09-19T07:27:24;98708.72;;;17.85;100.00
42289;BME280;30230;47.520;19.016;2023-09-19T07:29:25;98715.59;;;17.93;100.00
42289;BME280;30230;47.520;19.016;2023-09-19T07:31:26;98712.31;;;17.91;100.00
42289;BME280;30230;47.520;19.016;2023-09-19T07:33:27;98710.91;;;17.83;100.00
42289;BME280;30230;47.520;19.016;2023-09-19T07:35:28;98711.97;;;17.82;100.00
42289;BME280;30230;47.520;19.016;2023-09-19T07:37:29;98715.25;;;17.79;100.00
42289;BME280;30230;47.520;19.016;2023-09-19T07:39:29;98718.22;;;17.78;100.00
42289;BME280;30230;47.520;19.016;2023-09-19T07:41:29;98735.22;;;17.85;100.00
42289;BME280;30230;47.520;19.016;2023-09-19T07:43:32;98722.06;;;17.77;100.00
42289;BME280;30230;47.520;19.016;2023-09-19T07:45:33;98729.78;;;17.90;100.00
42289;BME280;30230;47.520;19.016;2023-09-19T07:47:33;98737.63;;;17.76;100.00
42289;BME280;30230;47.520;19.016;2023-09-19T07:49:34;98739.19;;;17.72;100.00
42289;BME280;30230;47.520;19.016;2023-09-19T07:51:35;98739.00;;;17.74;100.00
42289;BME280;30230;47.520;19.016;2023-09-19T07:53:35;98748.84;;;17.80;100.00
42289;BME280;30230;47.520;19.016;2023-09-19T07:55:36;98755.19;;;17.85;100.00
42289;BME280;30230;47.520;19.016;2023-09-19T07:57:37;98751.03;;;17.83;100.00
42289;BME280;30230;47.520;19.016;2023-09-19T07:59:37;98756.78;;;17.81;100.00
42289;BME280;30230;47.520;19.016;2023-09-19T08:01:38;98765.25;;;17.80;100.00
42289;BME280;30230;47.520;19.016;2023-09-19T08:03:39;98753.50;;;17.79;100.00
42289;BME280;30230;47.520;19.016;2023-09-19T08:05:44;98753.03;;;17.92;100.00
42289;BME280;30230;47.520;19.016;2023-09-19T08:07:45;98762.84;;;17.88;100.00
42289;BME280;30230;47.520;19.016;2023-09-19T08:09:48;98763.66;;;17.84;100.00
42289;BME280;30230;47.520;19.016;2023-09-19T08:11:48;98771.53;;;17.80;100.00
42289;BME280;30230;47.520;19.016;2023-09-19T08:13:50;98784.09;;;17.81;100.00
42289;BME280;30230;47.520;19.016;2023-09-19T08:15:51;98788.75;;;17.81;100.00
42289;BME280;30230;47.520;19.016;2023-09-19T08:17:53;98787.66;;;17.82;100.00
42289;BME280;30230;47.520;19.016;2023-09-19T08:19:53;98788.00;;;17.90;100.00
42289;BME280;30230;47.520;19.016;2023-09-19T08:21:56;98795.56;;;17.78;100.00
42289;BME280;30230;47.520;19.016;2023-09-19T08:23:59;98800.25;;;17.88;100.00
42289;BME280;30230;47.520;19.016;2023-09-19T08:26:01;98796.94;;;17.81;100.00
42289;BME280;30230;47.520;19.016;2023-09-19T08:28:06;98799.34;;;17.77;100.00
42289;BME280;30230;47.520;19.016;2023-09-19T08:30:08;98803.53;;;17.85;100.00
42289;BME280;30230;47.520;19.016;2023-09-19T08:32:10;98803.19;;;17.76;100.00
42289;BME280;30230;47.520;19.016;2023-09-19T08:34:11;98803.22;;;17.81;100.00
42289;BME280;30230;47.520;19.016;2023-09-19T08:36:11;98805.72;;;17.88;100.00
42289;BME280;30230;47.520;19.016;2023-09-19T08:38:12;98811.16;;;17.83;100.00
42289;BME280;30230;47.520;19.016;2023-09-19T08:40:14;98824.03;;;17.87;100.00
42289;BME280;30230;47.520;19.016;2023-09-19T08:42:14;98825.72;;;17.93;100.00
42289;BME280;30230;47.520;19.016;2023-09-19T08:44:16;98838.03;;;17.96;100.00
42289;BME280;30230;47.520;19.016;2023-09-19T08:46:17;98835.34;;;18.01;100.00
42289;BME280;30230;47.520;19.016;2023-09-19T08:48:22;98848.19;;;18.01;100.00
42289;BME280;30230;47.520;19.016;2023-09-19T08:50:26;98850.38;;;18.04;100.00
42289;BME280;30230;47.520;19.016;2023-09-19T08:52:27;98863.84;;;18.10;100.00
42289;BME280;30230;47.520;19.016;2023-09-19T08:54:32;98862.72;;;18.06;100.00
42289;BME280;30230;47.520;19.016;2023-09-19T08:56:35;98866.22;;;18.02;100.00
42289;BME280;30230;47.520;19.016;2023-09-19T08:58:44;98870.59;;;18.03;100.00
42289;BME280;30230;47.520;19.016;2023-09-19T09:00:47;98879.34;;;18.00;100.00
42289;BME280;30230;47.520;19.016;2023-09-19T09:02:49;98871.69;;;18.02;100.00
42289;BME280;30230;47.520;19.016;2023-09-19T09:04:49;98871.13;;;18.00;100.00
42289;BME280;30230;47.520;19.016;2023-09-19T09:06:50;98864.59;;;18.01;100.00
42289;BME280;30230;47.520;19.016;2023-09-19T09:08:53;98862.72;;;18.06;100.00
42289;BME280;30230;47.520;19.016;2023-09-19T09:10:54;98862.75;;;18.11;100.00
42289;BME280;30230;47.520;19.016;2023-09-19T09:12:54;98849.41;;;18.20;100.00
42289;BME280;30230;47.520;19.016;2023-09-19T09:14:55;98836.84;;;18.24;100.00
42289;BME280;30230;47.520;19.016;2023-09-19T09:16:57;98835.81;;;18.30;100.00
42289;BME280;30230;47.520;19.016;2023-09-19T09:18:59;98841.84;;;18.37;100.00
42289;BME280;30230;47.520;19.016;2023-09-19T09:20:59;98842.16;;;18.41;100.00
42289;BME280;30230;47.520;19.016;2023-09-19T09:22:59;98838.88;;;18.44;100.00
42289;BME280;30230;47.520;19.016;2023-09-19T09:25:03;98837.25;;;18.43;100.00
42289;BME280;30230;47.520;19.016;2023-09-19T09:27:05;98836.72;;;18.46;100.00
42289;BME280;30230;47.520;19.016;2023-09-19T09:29:08;98828.75;;;18.44;100.00
42289;BME280;30230;47.520;19.016;2023-09-19T09:31:11;98818.16;;;18.53;100.00
42289;BME280;30230;47.520;19.016;2023-09-19T09:33:21;98813.75;;;18.47;100.00
42289;BME280;30230;47.520;19.016;2023-09-19T09:35:22;98806.88;;;18.44;100.00
42289;BME280;30230;47.520;19.016;2023-09-19T09:37:23;98813.41;;;18.38;100.00
42289;BME280;30230;47.520;19.016;2023-09-19T09:39:30;98817.84;;;18.49;100.00
42289;BME280;30230;47.520;19.016;2023-09-19T09:41:37;98823.03;;;18.46;100.00
42289;BME280;30230;47.520;19.016;2023-09-19T09:43:39;98818.91;;;18.43;100.00
42289;BME280;30230;47.520;19.016;2023-09-19T09:45:40;98822.16;;;18.35;100.00
42289;BME280;30230;47.520;19.016;2023-09-19T09:47:48;98823.59;;;18.48;100.00
42289;BME280;30230;47.520;19.016;2023-09-19T09:49:58;98824.91;;;18.35;100.00
42289;BME280;30230;47.520;19.016;2023-09-19T09:52:07;98829.56;;;18.40;100.00
42289;BME280;30230;47.520;19.016;2023-09-19T09:54:12;98842.16;;;18.41;100.00
42289;BME280;30230;47.520;19.016;2023-09-19T09:56:12;98850.34;;;18.36;100.00
42289;BME280;30230;47.520;19.016;2023-09-19T09:58:17;98847.63;;;18.41;100.00
42289;BME280;30230;47.520;19.016;2023-09-19T10:00:23;98848.69;;;18.40;100.00
42289;BME280;30230;47.520;19.016;2023-09-19T10:04:36;98840.28;;;18.46;100.00
42289;BME280;30230;47.520;19.016;2023-09-19T10:06:44;98835.66;;;18.52;100.00
42289;BME280;30230;47.520;19.016;2023-09-19T10:09:00;98832.41;;;18.65;100.00
42289;BME280;30230;47.520;19.016;2023-09-19T10:11:16;98829.50;;;18.72;100.00
42289;BME280;30230;47.520;19.016;2023-09-19T10:13:18;98832.81;;;18.89;100.00
42289;BME280;30230;47.520;19.016;2023-09-19T10:15:22;98836.97;;;19.02;100.00
42289;BME280;30230;47.520;19.016;2023-09-19T10:17:26;98836.72;;;19.09;100.00
42289;BME280;30230;47.520;19.016;2023-09-19T10:19:40;98839.50;;;19.24;100.00
42289;BME280;30230;47.520;19.016;2023-09-19T10:21:46;98843.34;;;19.23;100.00
42289;BME280;30230;47.520;19.016;2023-09-19T10:23:48;98841.13;;;19.25;100.00
42289;BME280;30230;47.520;19.016;2023-09-19T10:25:49;98846.31;;;19.21;100.00
42289;BME280;30230;47.520;19.016;2023-09-19T10:27:50;98850.47;;;19.34;100.00
42289;BME280;30230;47.520;19.016;2023-09-19T10:29:50;98855.97;;;19.49;100.00
42289;BME280;30230;47.520;19.016;2023-09-19T10:31:52;98857.06;;;19.48;100.00
42289;BME280;30230;47.520;19.016;2023-09-19T10:33:53;98862.34;;;19.65;100.00
42289;BME280;30230;47.520;19.016;2023-09-19T10:35:56;98870.25;;;19.62;100.00
42289;BME280;30230;47.520;19.016;2023-09-19T10:38:00;98865.88;;;19.61;100.00
42289;BME280;30230;47.520;19.016;2023-09-19T10:40:01;98861.72;;;19.48;100.00
42289;BME280;30230;47.520;19.016;2023-09-19T10:42:02;98866.38;;;19.58;100.00
42289;BME280;30230;47.520;19.016;2023-09-19T10:44:05;98860.91;;;19.58;100.00
42289;BME280;30230;47.520;19.016;2023-09-19T10:46:07;98864.47;;;19.53;100.00
42289;BME280;30230;47.520;19.016;2023-09-19T10:48:07;98858.16;;;19.47;100.00
42289;BME280;30230;47.520;19.016;2023-09-19T10:50:08;98860.63;;;19.49;100.00
42289;BME280;30230;47.520;19.016;2023-09-19T10:52:09;98860.34;;;19.50;100.00
42289;BME280;30230;47.520;19.016;2023-09-19T10:54:18;98866.94;;;19.55;100.00